createdAt,value
2018-06-16T00:01:29.587Z,17.80
2018-06-16T00:03:58.560Z,14.50
2018-06-16T00:06:27.620Z,16.00
2018-06-16T00:08:56.612Z,14.40
2018-06-16T00:11:25.618Z,11.97
2018-06-16T00:13:54.705Z,12.93
2018-06-16T00:16:23.668Z,13.40
2018-06-16T00:18:52.651Z,13.23
2018-06-16T00:21:21.717Z,12.63
2018-06-16T00:23:50.663Z,12.70
2018-06-16T00:26:19.609Z,11.50
2018-06-16T00:28:48.642Z,13.83
2018-06-16T00:31:17.593Z,14.87
2018-06-16T00:33:46.552Z,13.90
2018-06-16T00:36:15.501Z,12.13
2018-06-16T00:38:44.497Z,12.43
2018-06-16T00:41:13.448Z,10.63
2018-06-16T00:43:42.469Z,12.13
2018-06-16T00:46:11.522Z,11.03
2018-06-16T00:48:40.523Z,11.33
2018-06-16T00:51:09.504Z,11.57
2018-06-16T00:53:38.509Z,11.73
2018-06-16T00:56:07.553Z,12.50
2018-06-16T00:58:36.514Z,13.30
2018-06-16T01:01:05.513Z,13.43
2018-06-16T01:03:34.475Z,13.60
2018-06-16T01:06:03.421Z,11.77
2018-06-16T01:08:32.364Z,13.30
2018-06-16T01:11:01.369Z,14.20
2018-06-16T01:13:30.392Z,13.60
2018-06-16T01:15:59.358Z,13.83
2018-06-16T01:18:28.507Z,12.73
2018-06-16T01:20:58.356Z,14.07
2018-06-16T01:23:27.316Z,13.50
2018-06-16T01:25:56.380Z,15.83
2018-06-16T01:28:25.453Z,13.87
2018-06-16T01:30:54.460Z,12.80
2018-06-16T01:33:23.556Z,15.70
2018-06-16T01:35:52.561Z,15.00
2018-06-16T01:38:22.044Z,15.43
2018-06-16T01:40:50.984Z,14.80
2018-06-16T01:43:19.940Z,15.60
2018-06-16T01:45:48.876Z,15.10
2018-06-16T01:48:17.827Z,14.67
2018-06-16T01:50:46.824Z,15.57
2018-06-16T01:53:15.770Z,16.80
2018-06-16T01:55:44.704Z,18.43
2018-06-16T01:58:13.731Z,17.87
2018-06-16T02:00:42.736Z,17.77
2018-06-16T02:03:11.822Z,17.50
2018-06-16T02:05:40.905Z,18.47
2018-06-16T02:08:09.924Z,17.93
2018-06-16T02:10:38.981Z,22.03
2018-06-16T02:13:07.937Z,21.63
2018-06-16T02:15:36.940Z,21.97
2018-06-16T02:18:05.943Z,19.67
2018-06-16T02:20:35.009Z,20.90
2018-06-16T02:23:04.026Z,20.00
2018-06-16T02:25:33.101Z,18.27
2018-06-16T02:28:02.064Z,16.27
2018-06-16T02:30:31.004Z,17.40
2018-06-16T02:32:59.969Z,20.33
2018-06-16T02:35:29.049Z,17.20
2018-06-16T02:37:58.138Z,17.00
2018-06-16T02:40:27.101Z,17.43
2018-06-16T02:42:56.297Z,18.70
2018-06-16T02:45:25.253Z,17.33
2018-06-16T02:47:54.200Z,17.80
2018-06-16T02:50:23.347Z,18.20
2018-06-16T02:52:52.296Z,18.80
2018-06-16T02:55:21.297Z,17.00
2018-06-16T02:57:50.292Z,17.93
2018-06-16T03:00:19.311Z,20.23
2018-06-16T03:02:48.239Z,18.50
2018-06-16T03:05:17.381Z,16.27
2018-06-16T03:07:46.332Z,16.07
2018-06-16T03:10:15.284Z,16.33
2018-06-16T03:12:44.363Z,18.10
2018-06-16T03:15:13.505Z,15.90
2018-06-16T03:17:42.492Z,14.87
2018-06-16T03:20:11.516Z,15.33
2018-06-16T03:22:40.537Z,14.30
2018-06-16T03:25:09.496Z,14.40
2018-06-16T03:27:38.557Z,15.13
2018-06-16T03:30:07.603Z,17.07
2018-06-16T03:32:36.597Z,18.13
2018-06-16T03:35:05.560Z,18.90
2018-06-16T03:37:34.515Z,18.90
2018-06-16T03:40:03.568Z,17.87
2018-06-16T03:42:32.504Z,18.17
2018-06-16T03:45:01.593Z,19.30
2018-06-16T03:47:30.684Z,18.40
2018-06-16T03:49:59.704Z,17.83
2018-06-16T03:52:28.783Z,18.40
2018-06-16T03:54:58.005Z,18.60
2018-06-16T03:57:27.039Z,19.77
2018-06-16T03:59:56.093Z,19.20
2018-06-16T04:02:25.100Z,18.67
2018-06-16T04:04:54.113Z,18.73
2018-06-16T04:07:23.062Z,19.23
2018-06-16T04:09:52.082Z,18.80
2018-06-16T04:12:21.404Z,17.17
2018-06-16T04:14:50.464Z,15.17
2018-06-16T04:17:20.493Z,15.27
2018-06-16T04:19:51.780Z,15.93
2018-06-16T04:22:21.212Z,16.50
2018-06-16T04:24:50.232Z,15.40
2018-06-16T04:27:19.216Z,16.00
2018-06-16T04:29:48.237Z,15.40
2018-06-16T04:32:17.179Z,17.93
2018-06-16T04:34:46.302Z,18.27
2018-06-16T04:37:15.424Z,15.40
2018-06-16T04:39:44.412Z,16.60
2018-06-16T04:42:13.400Z,15.67
2018-06-16T04:44:42.426Z,16.23
2018-06-16T04:47:11.380Z,14.87
2018-06-16T04:49:40.383Z,15.63
2018-06-16T04:52:09.402Z,16.90
2018-06-16T04:54:38.449Z,15.57
2018-06-16T04:57:07.496Z,16.73
2018-06-16T04:59:36.496Z,19.50
2018-06-16T05:02:05.585Z,17.37
2018-06-16T05:04:34.560Z,18.90
2018-06-16T05:07:03.515Z,21.03
2018-06-16T05:09:32.551Z,25.33
2018-06-16T05:12:01.619Z,24.50
2018-06-16T05:14:30.597Z,28.20
2018-06-16T05:16:59.620Z,29.70
2018-06-16T05:19:28.696Z,28.23
2018-06-16T05:21:57.800Z,30.77
2018-06-16T05:24:26.812Z,30.37
2018-06-16T05:26:55.844Z,30.20
2018-06-16T05:29:24.808Z,25.47
2018-06-16T05:31:53.756Z,23.40
2018-06-16T05:34:22.753Z,22.40
2018-06-16T05:36:51.926Z,20.53
2018-06-16T05:39:21.011Z,23.10
2018-06-16T05:41:50.090Z,24.20
2018-06-16T05:44:19.124Z,20.73
2018-06-16T05:46:48.217Z,17.90
2018-06-16T05:49:17.238Z,20.57
2018-06-16T05:51:46.193Z,18.50
2018-06-16T05:54:15.269Z,18.23
2018-06-16T05:56:44.239Z,17.43
2018-06-16T05:59:13.244Z,18.87
2018-06-16T06:01:42.272Z,29.10
2018-06-16T06:04:11.263Z,22.23
2018-06-16T06:06:40.305Z,18.83
2018-06-16T06:09:10.435Z,14.53
2018-06-16T06:11:39.671Z,15.73
2018-06-16T06:14:09.596Z,16.77
2018-06-16T06:16:39.229Z,16.13
2018-06-16T06:19:08.209Z,17.17
2018-06-16T06:21:37.214Z,15.97
2018-06-16T06:24:06.241Z,18.60
2018-06-16T06:26:35.377Z,20.40
2018-06-16T06:29:04.405Z,20.07
2018-06-16T06:31:33.363Z,19.30
2018-06-16T06:34:02.384Z,17.70
2018-06-16T06:36:31.404Z,19.70
2018-06-16T06:39:00.413Z,20.07
2018-06-16T06:41:29.394Z,19.83
2018-06-16T06:43:58.364Z,20.27
2018-06-16T06:46:27.473Z,17.40
2018-06-16T06:48:56.441Z,18.83
2018-06-16T06:51:25.444Z,19.67
2018-06-16T06:53:54.534Z,20.33
2018-06-16T06:56:23.557Z,19.87
2018-06-16T06:58:52.597Z,19.93
2018-06-16T07:01:21.556Z,18.90
2018-06-16T07:03:50.639Z,17.47
2018-06-16T07:06:19.690Z,15.00
2018-06-16T07:08:48.701Z,14.67
2018-06-16T07:11:17.787Z,14.60
2018-06-16T07:13:46.865Z,15.97
2018-06-16T07:16:15.832Z,14.00
2018-06-16T07:18:44.888Z,12.80
2018-06-16T07:21:13.908Z,12.43
2018-06-16T07:23:42.917Z,12.43
2018-06-16T07:26:11.920Z,11.23
2018-06-16T07:28:40.890Z,11.07
2018-06-16T07:31:09.836Z,11.00
2018-06-16T07:33:38.920Z,11.13
2018-06-16T07:36:07.909Z,10.90
2018-06-16T07:38:36.905Z,10.63
2018-06-16T07:41:05.857Z,10.90
2018-06-16T07:43:34.932Z,10.67
2018-06-16T07:46:03.894Z,11.80
2018-06-16T07:48:32.951Z,10.77
2018-06-16T07:51:01.953Z,11.10
2018-06-16T07:53:30.990Z,11.20
2018-06-16T07:55:59.980Z,10.57
2018-06-16T07:58:29.061Z,12.43
2018-06-16T08:00:58.045Z,14.23
2018-06-16T08:03:27.000Z,13.40
2018-06-16T08:05:55.982Z,14.80
2018-06-16T08:08:25.040Z,13.70
2018-06-16T08:10:54.017Z,15.33
2018-06-16T08:13:23.078Z,14.20
2018-06-16T08:15:52.110Z,12.73
2018-06-16T08:18:21.149Z,10.03
2018-06-16T08:20:50.202Z,6.87
2018-06-16T08:23:19.204Z,5.40
2018-06-16T08:25:48.236Z,4.20
2018-06-16T08:28:17.255Z,5.00
2018-06-16T08:30:46.235Z,6.83
2018-06-16T08:33:15.165Z,6.70
2018-06-16T08:35:44.220Z,7.23
2018-06-16T08:38:13.313Z,7.60
2018-06-16T08:40:42.275Z,7.33
2018-06-16T08:43:11.233Z,7.70
2018-06-16T08:45:40.304Z,7.47
2018-06-16T08:48:09.297Z,7.43
2018-06-16T08:50:38.322Z,7.63
2018-06-16T08:53:07.421Z,8.37
2018-06-16T08:55:36.480Z,7.37
2018-06-16T08:58:05.433Z,7.77
2018-06-16T09:00:34.384Z,8.43
2018-06-16T09:03:03.340Z,6.70
2018-06-16T09:05:32.337Z,6.23
2018-06-16T09:08:01.352Z,7.37
2018-06-16T09:10:30.529Z,9.43
2018-06-16T09:12:59.497Z,8.90
2018-06-16T09:15:28.577Z,7.50
2018-06-16T09:17:57.687Z,7.90
2018-06-16T09:20:26.660Z,7.33
2018-06-16T09:22:55.841Z,8.73
2018-06-16T09:25:24.845Z,6.53
2018-06-16T09:27:53.938Z,7.40
2018-06-16T09:30:22.884Z,6.40
2018-06-16T09:32:51.919Z,7.40
2018-06-16T09:35:20.920Z,7.30
2018-06-16T09:37:49.949Z,6.83
2018-06-16T09:40:18.888Z,7.37
2018-06-16T09:42:47.912Z,7.20
2018-06-16T09:45:16.856Z,6.40
2018-06-16T09:47:45.973Z,7.57
2018-06-16T09:50:14.925Z,6.60
2018-06-16T09:52:43.965Z,7.00
2018-06-16T09:55:12.924Z,6.80
2018-06-16T09:57:41.860Z,5.60
2018-06-16T10:00:14.883Z,6.00
2018-06-16T10:02:43.833Z,6.37
2018-06-16T10:05:12.861Z,5.80
2018-06-16T10:07:41.831Z,6.03
2018-06-16T10:10:10.862Z,4.83
2018-06-16T10:12:39.936Z,5.97
2018-06-16T10:15:08.976Z,4.97
2018-06-16T10:17:37.931Z,5.40
2018-06-16T10:20:06.880Z,5.40
2018-06-16T10:22:35.864Z,5.43
2018-06-16T10:25:04.857Z,5.83
2018-06-16T10:27:33.920Z,5.50
2018-06-16T10:30:02.932Z,5.50
2018-06-16T10:32:32.003Z,5.90
2018-06-16T10:35:00.973Z,5.87
2018-06-16T10:37:29.956Z,6.60
2018-06-16T10:39:58.940Z,5.67
2018-06-16T10:42:27.916Z,5.83
2018-06-16T10:44:57.020Z,5.40
2018-06-16T10:47:26.040Z,6.00
2018-06-16T10:49:55.045Z,6.77
2018-06-16T10:52:24.092Z,6.00
2018-06-16T10:54:53.181Z,6.13
2018-06-16T10:57:22.229Z,5.87
2018-06-16T10:59:51.177Z,5.27
2018-06-16T11:02:20.145Z,5.37
2018-06-16T11:04:49.263Z,5.87
2018-06-16T11:07:18.307Z,5.30
2018-06-16T11:09:47.349Z,4.63
2018-06-16T11:12:16.432Z,6.10
2018-06-16T11:14:45.379Z,5.27
2018-06-16T11:17:14.515Z,6.53
2018-06-16T11:19:43.527Z,6.57
2018-06-16T11:22:12.463Z,5.83
2018-06-16T11:24:41.476Z,6.67
2018-06-16T11:27:10.411Z,7.07
2018-06-16T11:29:39.376Z,6.50
2018-06-16T11:32:08.335Z,6.90
2018-06-16T11:34:37.368Z,6.70
2018-06-16T11:37:06.333Z,7.40
2018-06-16T11:39:35.355Z,7.93
2018-06-16T11:42:04.427Z,7.30
2018-06-16T11:44:33.430Z,7.27
2018-06-16T11:47:02.392Z,6.40
2018-06-16T11:49:31.321Z,6.40
2018-06-16T11:52:00.337Z,7.00
2018-06-16T11:54:29.385Z,7.60
2018-06-16T11:56:58.455Z,8.70
2018-06-16T11:59:27.456Z,7.63
2018-06-16T12:01:56.488Z,7.80
2018-06-16T12:04:25.557Z,7.70
2018-06-16T12:06:54.507Z,8.03
2018-06-16T12:09:23.513Z,7.90
2018-06-16T12:11:52.448Z,7.90
2018-06-16T12:14:21.407Z,8.97
2018-06-16T12:16:50.368Z,7.90
2018-06-16T12:19:19.448Z,7.83
2018-06-16T12:21:48.451Z,7.27
2018-06-16T12:24:17.451Z,8.20
2018-06-16T12:26:46.431Z,8.17
2018-06-16T12:29:15.437Z,8.20
2018-06-16T12:31:44.404Z,8.80
2018-06-16T12:34:13.342Z,8.50
2018-06-16T12:36:42.336Z,7.90
2018-06-16T12:39:12.030Z,6.77
2018-06-16T12:41:41.195Z,8.20
2018-06-16T12:44:10.223Z,7.90
2018-06-16T12:46:39.151Z,7.33
2018-06-16T12:49:08.132Z,8.43
2018-06-16T12:51:37.186Z,8.20
2018-06-16T12:54:06.286Z,8.17
2018-06-16T12:56:35.296Z,8.43
2018-06-16T12:59:04.263Z,10.37
2018-06-16T13:01:33.225Z,9.30
2018-06-16T13:04:02.297Z,10.30
2018-06-16T13:06:31.396Z,8.00
2018-06-16T13:09:00.413Z,6.00
2018-06-16T13:11:29.477Z,6.30
2018-06-16T13:13:58.495Z,8.37
2018-06-16T13:16:27.489Z,9.90
2018-06-16T13:18:56.929Z,7.83
2018-06-16T13:21:26.312Z,7.90
2018-06-16T13:23:55.269Z,7.53
2018-06-16T13:26:24.293Z,7.43
2018-06-16T13:28:53.338Z,9.37
2018-06-16T13:31:22.381Z,9.43
2018-06-16T13:33:51.426Z,9.03
2018-06-16T13:36:20.517Z,10.07
2018-06-16T13:38:49.563Z,8.97
2018-06-16T13:41:18.603Z,8.50
2018-06-16T13:43:47.556Z,9.00
2018-06-16T13:46:16.530Z,8.73
2018-06-16T13:48:45.548Z,8.20
2018-06-16T13:51:14.581Z,8.90
2018-06-16T13:53:43.596Z,7.63
2018-06-16T13:56:13.317Z,8.90
2018-06-16T13:58:42.407Z,9.33
2018-06-16T14:01:11.557Z,9.50
2018-06-16T14:03:40.612Z,9.17
2018-06-16T14:06:09.618Z,8.80
2018-06-16T14:08:38.739Z,7.77
2018-06-16T14:11:07.735Z,8.70
2018-06-16T14:13:36.762Z,8.60
2018-06-16T14:16:05.808Z,7.20
2018-06-16T14:18:34.835Z,6.50
2018-06-16T14:21:03.813Z,7.20
2018-06-16T14:23:32.792Z,6.43
2018-06-16T14:26:01.786Z,6.70
2018-06-16T14:28:30.817Z,7.67
2018-06-16T14:31:00.004Z,8.73
2018-06-16T14:33:29.030Z,8.57
2018-06-16T14:35:58.041Z,11.47
2018-06-16T14:38:27.053Z,15.60
2018-06-16T14:40:56.084Z,9.73
2018-06-16T14:43:25.043Z,7.50
2018-06-16T14:45:54.109Z,8.30
2018-06-16T14:48:23.068Z,9.50
2018-06-16T14:50:52.146Z,7.57
2018-06-16T14:53:21.155Z,7.80
2018-06-16T14:55:50.192Z,8.20
2018-06-16T14:58:19.112Z,7.70
2018-06-16T15:00:48.102Z,7.07
2018-06-16T15:03:17.165Z,7.80
2018-06-16T15:05:46.152Z,6.90
2018-06-16T15:08:15.172Z,8.53
2018-06-16T15:10:44.205Z,11.30
2018-06-16T15:13:13.204Z,10.13
2018-06-16T15:15:42.257Z,9.13
2018-06-16T15:18:11.504Z,8.00
2018-06-16T15:20:40.597Z,7.97
2018-06-16T15:23:09.548Z,7.20
2018-06-16T15:25:38.884Z,7.80
2018-06-16T15:28:07.851Z,10.03
2018-06-16T15:30:36.950Z,10.33
2018-06-16T15:33:05.984Z,11.03
2018-06-16T15:35:35.026Z,8.53
2018-06-16T15:38:04.040Z,6.07
2018-06-16T15:40:33.028Z,6.20
2018-06-16T15:43:02.098Z,5.57
2018-06-16T15:45:31.056Z,5.87
2018-06-16T15:48:00.001Z,5.00
2018-06-16T15:50:28.977Z,6.10
2018-06-16T15:52:57.935Z,5.60
2018-06-16T15:55:26.893Z,5.80
2018-06-16T15:57:55.850Z,6.37
2018-06-16T16:00:24.879Z,7.10
2018-06-16T16:02:54.560Z,5.60
2018-06-16T16:05:23.601Z,5.10
2018-06-16T16:07:52.645Z,6.70
2018-06-16T16:10:22.014Z,5.77
2018-06-16T16:12:50.993Z,5.00
2018-06-16T16:15:20.021Z,5.10
2018-06-16T16:17:49.149Z,7.87
2018-06-16T16:20:18.250Z,6.13
2018-06-16T16:22:47.212Z,6.03
2018-06-16T16:25:16.249Z,6.60
2018-06-16T16:27:45.455Z,7.27
2018-06-16T16:30:14.423Z,7.07
2018-06-16T16:32:43.393Z,7.10
2018-06-16T16:35:12.481Z,7.27
2018-06-16T16:37:41.474Z,7.20
2018-06-16T16:40:10.511Z,6.27
2018-06-16T16:42:39.528Z,6.50
2018-06-16T16:45:08.763Z,5.97
2018-06-16T16:47:37.824Z,6.40
2018-06-16T16:50:06.829Z,7.00
2018-06-16T16:52:35.827Z,7.07
2018-06-16T16:55:04.781Z,7.80
2018-06-16T16:57:33.860Z,6.63
2018-06-16T17:00:02.821Z,6.83
2018-06-16T17:02:31.848Z,7.40
2018-06-16T17:05:00.877Z,8.40
2018-06-16T17:07:29.910Z,7.50
2018-06-16T17:09:58.869Z,7.13
2018-06-16T17:12:27.923Z,7.07
2018-06-16T17:14:56.938Z,7.70
2018-06-16T17:17:25.985Z,7.50
2018-06-16T17:19:54.948Z,5.83
2018-06-16T17:22:23.961Z,6.87
2018-06-16T17:24:52.981Z,6.30
2018-06-16T17:27:22.035Z,5.80
2018-06-16T17:29:51.090Z,8.27
2018-06-16T17:32:20.140Z,10.37
2018-06-16T17:34:49.182Z,10.10
2018-06-16T17:37:18.151Z,9.30
2018-06-16T17:39:47.088Z,9.30
2018-06-16T17:42:16.059Z,8.20
2018-06-16T17:44:45.073Z,7.47
2018-06-16T17:47:14.176Z,7.90
2018-06-16T17:49:43.228Z,8.03
2018-06-16T17:52:12.329Z,7.93
2018-06-16T17:54:41.280Z,9.17
2018-06-16T17:57:10.259Z,10.00
2018-06-16T17:59:39.248Z,10.27
2018-06-16T18:02:08.504Z,9.53
2018-06-16T18:04:37.505Z,10.00
2018-06-16T18:07:06.448Z,11.00
2018-06-16T18:09:36.175Z,10.20
2018-06-16T18:12:05.825Z,9.87
2018-06-16T18:14:35.464Z,10.77
2018-06-16T18:17:05.126Z,10.23
2018-06-16T18:19:34.780Z,10.23
2018-06-16T18:22:04.591Z,9.50
2018-06-16T18:24:34.238Z,10.63
2018-06-16T18:27:04.801Z,10.80
2018-06-16T18:29:34.436Z,10.20
2018-06-16T18:32:04.225Z,12.10
2018-06-16T18:34:33.925Z,10.70
2018-06-16T18:37:03.673Z,11.57
2018-06-16T18:39:33.386Z,14.50
2018-06-16T18:42:03.605Z,14.43
2018-06-16T18:44:33.830Z,13.87
2018-06-16T18:47:04.614Z,13.93
2018-06-16T18:49:34.378Z,15.40
2018-06-16T18:52:04.030Z,14.33
2018-06-16T18:54:33.759Z,15.20
2018-06-16T18:57:03.409Z,15.73
2018-06-16T18:59:33.111Z,15.40
2018-06-16T19:02:02.788Z,14.03
2018-06-16T19:04:33.283Z,14.10
2018-06-16T19:07:02.927Z,14.97
2018-06-16T19:09:34.099Z,13.30
2018-06-16T19:12:03.400Z,12.67
2018-06-16T19:14:32.542Z,13.77
2018-06-16T19:17:01.530Z,16.70
2018-06-16T19:19:30.774Z,12.50
2018-06-16T19:21:59.767Z,14.37
2018-06-16T19:24:28.755Z,13.73
2018-06-16T19:26:57.760Z,14.40
2018-06-16T19:29:26.764Z,13.90
2018-06-16T19:31:55.791Z,14.30
2018-06-16T19:34:24.739Z,12.30
2018-06-16T19:36:53.728Z,15.20
2018-06-16T19:39:22.769Z,14.33
2018-06-16T19:41:51.750Z,13.90
2018-06-16T19:44:20.699Z,13.03
2018-06-16T19:46:49.685Z,12.40
2018-06-16T19:49:18.651Z,11.17
2018-06-16T19:51:47.688Z,10.90
2018-06-16T19:54:16.666Z,10.87
2018-06-16T19:56:45.662Z,13.67
2018-06-16T19:59:14.644Z,11.80
2018-06-16T20:01:43.636Z,11.97
2018-06-16T20:04:13.056Z,11.60
2018-06-16T20:06:42.088Z,12.43
2018-06-16T20:09:11.107Z,13.73
2018-06-16T20:11:40.103Z,12.70
2018-06-16T20:14:09.090Z,14.23
2018-06-16T20:16:38.055Z,12.83
2018-06-16T20:19:07.207Z,15.27
2018-06-16T20:21:36.204Z,16.93
2018-06-16T20:24:05.169Z,16.70
2018-06-16T20:26:34.156Z,16.90
2018-06-16T20:29:03.130Z,15.23
2018-06-16T20:31:32.177Z,17.27
2018-06-16T20:34:01.207Z,17.70
2018-06-16T20:36:30.194Z,16.70
2018-06-16T20:38:59.184Z,19.13
2018-06-16T20:41:28.171Z,17.87
2018-06-16T20:43:57.160Z,17.43
2018-06-16T20:46:26.222Z,17.50
2018-06-16T20:48:55.207Z,16.43
2018-06-16T20:51:24.191Z,16.50
2018-06-16T20:53:53.177Z,15.30
2018-06-16T20:56:22.179Z,16.50
2018-06-16T20:58:51.246Z,17.17
2018-06-16T21:01:20.247Z,16.97
2018-06-16T21:03:49.287Z,17.43
2018-06-16T21:06:18.268Z,16.33
2018-06-16T21:08:47.322Z,14.53
2018-06-16T21:11:16.271Z,17.93
2018-06-16T21:13:45.229Z,19.47
2018-06-16T21:16:14.215Z,19.93
2018-06-16T21:18:43.195Z,19.40
2018-06-16T21:21:12.212Z,21.97
2018-06-16T21:23:41.276Z,22.73
2018-06-16T21:26:10.236Z,19.87
2018-06-16T21:28:39.212Z,22.00
2018-06-16T21:31:08.318Z,20.37
2018-06-16T21:33:37.317Z,21.00
2018-06-16T21:36:06.480Z,28.00
2018-06-16T21:38:35.506Z,28.83
2018-06-16T21:41:04.494Z,23.30
2018-06-16T21:43:33.513Z,21.80
2018-06-16T21:46:02.504Z,21.40
2018-06-16T21:48:31.540Z,21.30
2018-06-16T21:51:00.522Z,22.57
2018-06-16T21:53:29.491Z,21.70
2018-06-16T21:55:58.452Z,22.87
2018-06-16T21:58:27.492Z,21.90
2018-06-16T22:00:56.470Z,21.40
2018-06-16T22:03:25.413Z,19.87
2018-06-16T22:05:54.383Z,18.60
2018-06-16T22:08:28.451Z,19.43
2018-06-16T22:10:57.422Z,17.80
2018-06-16T22:13:26.374Z,17.77
2018-06-16T22:15:55.388Z,19.07
2018-06-16T22:18:24.734Z,18.13
2018-06-16T22:20:53.726Z,17.90
2018-06-16T22:23:22.680Z,18.70
2018-06-16T22:25:51.636Z,18.10
2018-06-16T22:28:20.622Z,17.53
2018-06-16T22:30:49.591Z,16.37
2018-06-16T22:33:18.564Z,16.30
2018-06-16T22:35:47.538Z,16.40
2018-06-16T22:38:16.567Z,16.17
2018-06-16T22:40:45.535Z,15.50
2018-06-16T22:43:14.535Z,15.77
2018-06-16T22:45:43.517Z,14.60
2018-06-16T22:48:12.492Z,14.73
2018-06-16T22:50:41.470Z,12.87
2018-06-16T22:53:10.423Z,12.23
2018-06-16T22:55:39.385Z,10.60
2018-06-16T22:58:08.337Z,9.70
2018-06-16T23:00:37.309Z,8.63
2018-06-16T23:03:06.312Z,8.03
2018-06-16T23:05:35.358Z,6.70
2018-06-16T23:08:04.307Z,7.40
2018-06-16T23:10:33.282Z,7.80
2018-06-16T23:13:02.274Z,6.57
2018-06-16T23:15:31.278Z,6.77
2018-06-16T23:18:00.235Z,5.83
2018-06-16T23:20:29.221Z,5.67
2018-06-16T23:22:58.211Z,7.03
2018-06-16T23:25:27.225Z,10.33
2018-06-16T23:27:56.270Z,13.83
2018-06-16T23:30:25.252Z,16.43
2018-06-16T23:32:54.311Z,17.20
2018-06-16T23:35:23.272Z,16.53
2018-06-16T23:37:52.241Z,17.70
2018-06-16T23:40:21.206Z,18.53
2018-06-16T23:42:50.143Z,19.70
2018-06-16T23:45:19.096Z,18.30
2018-06-16T23:47:48.056Z,19.17
2018-06-16T23:50:16.991Z,18.90
2018-06-16T23:52:45.958Z,17.73
2018-06-16T23:55:15.024Z,16.60
2018-06-16T23:57:43.986Z,16.17
